createdAt,value
2023-05-19T00:00:15.575Z,3.13
2023-05-19T00:02:45.131Z,3.42
2023-05-19T00:05:15.990Z,3.78
2023-05-19T00:07:46.388Z,3.70
2023-05-19T00:10:17.025Z,3.58
2023-05-19T00:12:46.207Z,4.05
2023-05-19T00:15:15.530Z,3.92
2023-05-19T00:17:44.486Z,3.60
2023-05-19T00:20:14.288Z,3.20
2023-05-19T00:22:45.019Z,2.72
2023-05-19T00:25:14.088Z,3.20
2023-05-19T00:27:43.159Z,2.88
2023-05-19T00:30:12.262Z,2.55
2023-05-19T00:32:41.239Z,2.45
2023-05-19T00:35:10.498Z,2.50
2023-05-19T00:37:39.477Z,2.83
2023-05-19T00:40:09.258Z,2.90
2023-05-19T00:42:38.318Z,2.65
2023-05-19T00:45:07.905Z,2.83
2023-05-19T00:47:36.971Z,2.78
2023-05-19T00:50:06.333Z,2.80
2023-05-19T00:52:35.448Z,2.83
2023-05-19T00:55:04.433Z,2.97
2023-05-19T00:57:36.109Z,3.00
2023-05-19T01:00:06.549Z,2.47
2023-05-19T01:02:36.355Z,2.90
2023-05-19T01:05:05.451Z,2.75
2023-05-19T01:07:35.309Z,3.00
2023-05-19T01:10:05.045Z,2.80
2023-05-19T01:12:33.930Z,2.90
2023-05-19T01:15:07.570Z,4.03
2023-05-19T01:17:57.730Z,3.45
2023-05-19T01:20:51.589Z,2.40
2023-05-19T01:23:29.698Z,2.75
2023-05-19T01:26:41.058Z,2.60
2023-05-19T01:29:28.273Z,2.25
2023-05-19T01:32:01.341Z,2.85
2023-05-19T01:34:32.583Z,2.53
2023-05-19T01:37:03.793Z,2.78
2023-05-19T01:39:34.499Z,2.55
2023-05-19T01:42:05.172Z,2.50
2023-05-19T01:44:35.238Z,2.42
2023-05-19T01:47:04.783Z,2.65
2023-05-19T01:49:33.814Z,2.88
2023-05-19T01:52:02.884Z,2.92
2023-05-19T01:54:31.834Z,2.80
2023-05-19T01:57:22.424Z,2.78
2023-05-19T02:00:13.075Z,2.55
2023-05-19T02:02:57.050Z,2.35
2023-05-19T02:05:54.478Z,2.63
2023-05-19T02:08:35.421Z,3.20
2023-05-19T02:11:27.586Z,2.90
2023-05-19T02:13:58.050Z,2.60
2023-05-19T02:16:29.910Z,2.40
2023-05-19T02:19:00.364Z,3.28
2023-05-19T02:21:29.212Z,3.00
2023-05-19T02:23:58.195Z,2.60
2023-05-19T02:26:27.086Z,2.65
2023-05-19T02:28:56.050Z,2.65
2023-05-19T02:31:26.372Z,2.38
2023-05-19T02:33:55.228Z,2.47
2023-05-19T02:36:24.218Z,2.80
2023-05-19T02:38:53.090Z,2.80
2023-05-19T02:41:23.115Z,2.47
2023-05-19T02:43:52.100Z,2.78
2023-05-19T02:46:21.668Z,2.70
2023-05-19T02:48:50.651Z,2.47
2023-05-19T02:51:19.480Z,2.65
2023-05-19T02:53:48.294Z,2.78
2023-05-19T02:56:17.373Z,2.40
2023-05-19T02:58:46.287Z,2.17
2023-05-19T03:01:15.834Z,2.10
2023-05-19T03:03:44.965Z,2.13
2023-05-19T03:06:15.098Z,2.10
2023-05-19T03:08:44.199Z,2.05
2023-05-19T03:11:13.630Z,2.03
2023-05-19T03:13:42.654Z,2.13
2023-05-19T03:16:12.758Z,2.05
2023-05-19T03:18:42.960Z,2.15
2023-05-19T03:21:12.124Z,2.00
2023-05-19T03:23:41.411Z,2.20
2023-05-19T03:26:11.476Z,2.20
2023-05-19T03:28:40.446Z,2.10
2023-05-19T03:31:09.312Z,2.20
2023-05-19T03:33:40.576Z,1.85
2023-05-19T03:36:09.766Z,2.10
2023-05-19T03:38:42.934Z,2.10
2023-05-19T03:41:11.871Z,1.85
2023-05-19T03:43:40.713Z,2.00
2023-05-19T03:46:11.397Z,1.95
2023-05-19T03:48:57.726Z,1.70
2023-05-19T03:51:39.566Z,2.30
2023-05-19T03:54:23.273Z,2.53
2023-05-19T03:56:52.906Z,12.80
2023-05-19T03:59:21.946Z,3.95
2023-05-19T04:01:51.645Z,2.00
2023-05-19T04:04:20.806Z,1.90
2023-05-19T04:06:49.954Z,2.00
2023-05-19T04:09:20.273Z,1.90
2023-05-19T04:11:48.971Z,2.28
2023-05-19T04:14:18.000Z,6.22
2023-05-19T04:16:46.766Z,9.80
2023-05-19T04:19:15.752Z,4.22
2023-05-19T04:21:44.524Z,2.10
2023-05-19T04:24:13.633Z,2.60
2023-05-19T04:26:46.648Z,2.70
2023-05-19T04:29:18.811Z,2.83
2023-05-19T04:31:48.006Z,3.90
2023-05-19T04:34:20.622Z,3.47
2023-05-19T04:36:53.073Z,1.92
2023-05-19T04:39:25.716Z,1.50
2023-05-19T04:41:55.184Z,2.92
2023-05-19T04:44:25.505Z,2.20
2023-05-19T04:46:54.911Z,2.10
2023-05-19T04:49:25.215Z,2.30
2023-05-19T04:51:55.799Z,1.90
2023-05-19T04:54:29.512Z,2.55
2023-05-19T04:56:58.607Z,5.70
2023-05-19T04:59:30.418Z,2.78
2023-05-19T05:01:59.872Z,3.38
2023-05-19T05:04:31.456Z,1.85
2023-05-19T05:07:00.472Z,2.10
2023-05-19T05:09:30.674Z,1.85
2023-05-19T05:12:02.862Z,1.92
2023-05-19T05:14:32.440Z,2.90
2023-05-19T05:17:02.337Z,2.90
2023-05-19T05:19:32.284Z,3.03
2023-05-19T05:22:01.759Z,2.22
2023-05-19T05:24:32.659Z,1.83
2023-05-19T05:27:04.789Z,1.77
2023-05-19T05:29:34.785Z,2.50
2023-05-19T05:32:05.820Z,2.08
2023-05-19T05:34:36.481Z,2.25
2023-05-19T05:37:06.743Z,1.70
2023-05-19T05:39:36.798Z,2.63
2023-05-19T05:42:06.687Z,3.47
2023-05-19T05:44:36.439Z,3.25
2023-05-19T05:47:07.406Z,2.60
2023-05-19T05:49:39.030Z,2.30
2023-05-19T05:52:10.266Z,1.75
2023-05-19T05:54:44.782Z,2.00
2023-05-19T05:57:16.364Z,2.78
2023-05-19T05:59:47.904Z,1.75
2023-05-19T06:02:19.040Z,3.83
2023-05-19T06:04:48.028Z,3.08
2023-05-19T06:07:16.935Z,5.95
2023-05-19T06:09:46.754Z,4.60
2023-05-19T06:12:16.970Z,2.58
2023-05-19T06:14:49.661Z,2.10
2023-05-19T06:17:55.237Z,2.92
2023-05-19T06:20:24.369Z,1.92
2023-05-19T06:22:53.190Z,2.53
2023-05-19T06:25:25.505Z,3.72
2023-05-19T06:27:55.186Z,2.53
2023-05-19T06:30:27.371Z,1.88
2023-05-19T06:33:19.397Z,2.30
2023-05-19T06:35:48.484Z,2.65
2023-05-19T06:38:17.644Z,2.65
2023-05-19T06:40:46.484Z,2.10
2023-05-19T06:43:15.672Z,3.03
2023-05-19T06:45:58.262Z,2.60
2023-05-19T06:48:27.653Z,2.40
2023-05-19T06:50:57.224Z,2.60
2023-05-19T06:53:26.793Z,1.90
2023-05-19T06:56:00.022Z,2.10
2023-05-19T06:58:33.927Z,2.20
2023-05-19T07:01:06.004Z,2.00
2023-05-19T07:03:41.013Z,1.70
2023-05-19T07:06:10.948Z,2.22
2023-05-19T07:08:39.712Z,1.75
2023-05-19T07:11:09.892Z,1.80
2023-05-19T07:13:39.180Z,1.95
2023-05-19T07:16:08.229Z,1.80
2023-05-19T07:18:37.244Z,2.10
2023-05-19T07:21:06.396Z,2.30
2023-05-19T07:23:35.491Z,1.88
2023-05-19T07:26:04.284Z,1.88
2023-05-19T07:28:35.196Z,2.05
2023-05-19T07:31:04.108Z,2.05
2023-05-19T07:33:33.004Z,2.03
2023-05-19T07:36:01.853Z,1.88
2023-05-19T07:38:35.224Z,2.22
2023-05-19T07:41:04.328Z,1.90
2023-05-19T07:43:33.372Z,2.00
2023-05-19T07:46:02.250Z,1.50
2023-05-19T07:48:34.452Z,1.90
2023-05-19T07:51:03.595Z,2.00
2023-05-19T07:53:32.550Z,1.90
2023-05-19T07:56:01.765Z,1.83
2023-05-19T07:58:30.809Z,1.88
2023-05-19T08:01:00.472Z,1.45
2023-05-19T08:03:31.394Z,1.95
2023-05-19T08:06:00.385Z,1.90
2023-05-19T08:08:29.086Z,1.90
2023-05-19T08:10:57.903Z,3.88
2023-05-19T08:13:26.838Z,1.90
2023-05-19T08:16:00.390Z,1.88
2023-05-19T08:18:29.427Z,1.90
2023-05-19T08:20:58.185Z,2.85
2023-05-19T08:23:27.343Z,2.20
2023-05-19T08:25:56.552Z,1.92
2023-05-19T08:28:25.664Z,1.70
2023-05-19T08:30:54.412Z,2.00
2023-05-19T08:33:23.718Z,1.45
2023-05-19T08:35:56.407Z,1.60
2023-05-19T08:38:26.934Z,1.50
2023-05-19T08:40:56.215Z,1.55
2023-05-19T08:43:25.058Z,1.67
2023-05-19T08:45:54.985Z,2.10
2023-05-19T08:48:24.270Z,1.90
2023-05-19T08:51:26.684Z,1.80
2023-05-19T08:54:03.191Z,2.35
2023-05-19T08:56:35.505Z,2.45
2023-05-19T08:59:04.800Z,1.80
2023-05-19T09:01:34.207Z,5.97
2023-05-19T09:04:07.555Z,3.15
2023-05-19T09:06:36.402Z,1.98
2023-05-19T09:09:09.285Z,21.58
2023-05-19T09:11:38.611Z,2.47
2023-05-19T09:14:07.563Z,2.13
2023-05-19T09:16:36.442Z,2.40
2023-05-19T09:19:05.478Z,7.15
2023-05-19T09:21:34.601Z,2.08
2023-05-19T09:24:07.616Z,1.92
2023-05-19T09:26:44.132Z,3.60
2023-05-19T09:29:17.848Z,2.80
2023-05-19T09:32:06.857Z,2.13
2023-05-19T09:34:43.013Z,1.48
2023-05-19T09:37:14.193Z,1.60
2023-05-19T09:39:49.342Z,1.42
2023-05-19T09:42:19.918Z,1.73
2023-05-19T09:44:49.094Z,2.40
2023-05-19T09:47:18.201Z,2.72
2023-05-19T09:49:53.322Z,3.00
2023-05-19T09:52:22.865Z,2.28
2023-05-19T09:54:52.623Z,1.90
2023-05-19T09:57:30.261Z,2.42
2023-05-19T10:00:01.148Z,1.58
2023-05-19T10:02:33.949Z,1.70
2023-05-19T10:05:05.397Z,1.70
2023-05-19T10:07:35.408Z,1.70
2023-05-19T10:10:04.488Z,1.63
2023-05-19T10:12:34.242Z,1.90
2023-05-19T10:15:04.084Z,3.00
2023-05-19T10:17:35.510Z,3.80
2023-05-19T10:20:06.020Z,1.85
2023-05-19T10:22:35.482Z,2.35
2023-05-19T10:25:05.206Z,2.90
2023-05-19T10:27:39.944Z,1.90
2023-05-19T10:30:51.679Z,2.20
2023-05-19T10:33:29.781Z,1.67
2023-05-19T10:36:03.536Z,2.15
2023-05-19T10:39:19.993Z,1.90
2023-05-19T10:42:35.661Z,1.63
2023-05-19T10:45:21.271Z,1.70
2023-05-19T10:47:52.511Z,2.00
2023-05-19T10:50:21.940Z,1.88
2023-05-19T10:52:57.783Z,4.68
2023-05-19T10:55:54.122Z,2.08
2023-05-19T10:58:42.251Z,2.05
2023-05-19T11:01:18.210Z,2.00
2023-05-19T11:03:52.999Z,1.95
2023-05-19T11:06:29.923Z,1.80
2023-05-19T11:09:11.166Z,2.35
2023-05-19T11:11:55.719Z,2.20
2023-05-19T11:14:28.083Z,2.00
2023-05-19T11:17:01.267Z,2.03
2023-05-19T11:19:32.359Z,1.50
2023-05-19T11:22:12.246Z,1.52
2023-05-19T11:24:55.091Z,1.73
2023-05-19T11:27:28.051Z,1.80
2023-05-19T11:30:00.028Z,1.50
2023-05-19T11:32:34.485Z,1.50
2023-05-19T11:37:34.125Z,1.70
2023-05-19T11:40:08.143Z,1.55
2023-05-19T11:42:37.856Z,1.70
2023-05-19T11:45:07.944Z,2.30
2023-05-19T11:47:50.869Z,2.20
2023-05-19T11:50:26.866Z,1.75
2023-05-19T11:52:58.386Z,2.20
2023-05-19T11:55:27.774Z,2.20
2023-05-19T11:58:03.882Z,2.25
2023-05-19T12:00:40.257Z,2.00
2023-05-19T12:03:10.099Z,2.67
2023-05-19T12:05:43.703Z,3.15
2023-05-19T12:08:13.952Z,2.20
2023-05-19T12:10:43.036Z,3.65
2023-05-19T12:13:12.142Z,4.63
2023-05-19T12:15:40.926Z,2.38
2023-05-19T12:18:10.547Z,2.17
2023-05-19T12:20:40.214Z,4.07
2023-05-19T12:23:10.644Z,2.90
2023-05-19T12:25:39.583Z,3.13
2023-05-19T12:28:08.704Z,2.03
2023-05-19T12:30:41.011Z,2.10
2023-05-19T12:33:10.513Z,3.78
2023-05-19T12:35:39.423Z,4.20
2023-05-19T12:38:08.771Z,5.22
2023-05-19T12:40:40.192Z,3.45
2023-05-19T12:43:10.799Z,3.60
2023-05-19T12:45:43.284Z,4.75
2023-05-19T12:48:18.912Z,2.22
2023-05-19T12:50:48.010Z,2.58
2023-05-19T12:53:17.223Z,2.50
2023-05-19T12:55:46.713Z,2.60
2023-05-19T12:58:17.098Z,4.00
2023-05-19T13:00:51.326Z,2.97
2023-05-19T13:03:21.735Z,3.45
2023-05-19T13:05:52.496Z,3.72
2023-05-19T13:08:24.988Z,5.10
2023-05-19T13:10:53.775Z,4.63
2023-05-19T13:13:22.889Z,3.75
2023-05-19T13:15:52.017Z,6.30
2023-05-19T13:18:21.263Z,4.40
2023-05-19T13:20:52.140Z,3.95
2023-05-19T13:23:21.476Z,4.60
2023-05-19T13:25:52.439Z,89.97
2023-05-19T13:28:21.486Z,58.08
2023-05-19T13:30:52.342Z,9.38
2023-05-19T13:33:21.163Z,15.88
2023-05-19T13:35:50.149Z,6.28
2023-05-19T13:38:19.640Z,4.78
2023-05-19T13:40:50.801Z,10.35
2023-05-19T13:43:19.778Z,12.88
2023-05-19T13:45:48.698Z,51.38
2023-05-19T13:48:18.113Z,23.70
2023-05-19T13:50:48.021Z,26.33
2023-05-19T13:53:17.008Z,12.02
2023-05-19T13:55:49.298Z,7.20
2023-05-19T13:58:20.492Z,5.25
2023-05-19T14:00:51.896Z,4.70
2023-05-19T14:03:20.967Z,4.10
2023-05-19T14:05:50.341Z,6.45
2023-05-19T14:08:19.943Z,14.07
2023-05-19T14:10:48.940Z,13.02
2023-05-19T14:13:32.025Z,117.70
2023-05-19T14:16:03.310Z,12.90
2023-05-19T14:18:33.337Z,15.45
2023-05-19T14:21:02.394Z,6.72
2023-05-19T14:23:32.021Z,12.25
2023-05-19T14:26:01.128Z,24.00
2023-05-19T14:28:35.256Z,30.85
2023-05-19T14:31:04.466Z,15.05
2023-05-19T14:33:35.631Z,22.75
2023-05-19T14:36:06.017Z,20.48
2023-05-19T14:38:35.343Z,18.85
2023-05-19T14:41:04.557Z,17.95
2023-05-19T14:43:34.416Z,15.38
2023-05-19T14:46:03.279Z,20.65
2023-05-19T14:48:32.925Z,24.83
2023-05-19T14:51:02.141Z,26.48
2023-05-19T14:53:31.117Z,22.42
2023-05-19T14:56:00.195Z,23.75
2023-05-19T14:58:29.499Z,14.82
2023-05-19T15:00:59.991Z,13.40
2023-05-19T15:03:29.153Z,13.55
2023-05-19T15:05:58.080Z,11.25
2023-05-19T15:08:27.498Z,14.65
2023-05-19T15:10:56.481Z,15.30
2023-05-19T15:13:26.961Z,130.38
2023-05-19T15:16:08.242Z,14.95
2023-05-19T15:18:45.398Z,30.95
2023-05-19T15:21:14.299Z,35.50
2023-05-19T15:23:43.756Z,37.35
2023-05-19T15:26:13.662Z,25.55
2023-05-19T15:28:42.930Z,22.65
2023-05-19T15:31:11.987Z,26.08
2023-05-19T15:33:41.160Z,28.38
2023-05-19T15:36:10.278Z,29.33
2023-05-19T15:38:39.184Z,70.32
2023-05-19T15:41:09.396Z,80.13
2023-05-19T15:43:38.561Z,36.78
2023-05-19T15:46:07.682Z,39.33
2023-05-19T15:48:36.492Z,37.33
2023-05-19T15:51:05.642Z,32.75
2023-05-19T15:53:34.918Z,38.22
2023-05-19T15:56:04.838Z,28.63
2023-05-19T15:58:33.785Z,24.77
2023-05-19T16:01:02.999Z,23.98
2023-05-19T16:03:31.929Z,24.27
2023-05-19T16:06:03.784Z,21.35
2023-05-19T16:08:32.862Z,24.67
2023-05-19T16:11:01.932Z,32.38
2023-05-19T16:13:31.666Z,21.15
2023-05-19T16:16:01.034Z,50.30
2023-05-19T16:18:33.029Z,19.90
2023-05-19T16:21:01.760Z,19.50
2023-05-19T16:23:30.954Z,53.22
2023-05-19T16:26:02.019Z,73.53
2023-05-19T16:28:31.163Z,26.52
2023-05-19T16:31:01.301Z,32.35
2023-05-19T16:33:30.964Z,46.63
2023-05-19T16:36:03.005Z,31.20
2023-05-19T16:38:32.064Z,40.00
2023-05-19T16:41:00.844Z,31.42
2023-05-19T16:43:29.951Z,39.35
2023-05-19T16:45:58.739Z,37.97
2023-05-19T16:48:27.544Z,42.03
2023-05-19T16:50:56.384Z,70.60
2023-05-19T16:53:25.567Z,43.85
2023-05-19T16:55:55.281Z,53.53
2023-05-19T16:58:24.621Z,27.50
2023-05-19T17:00:54.008Z,23.58
2023-05-19T17:03:26.291Z,74.47
2023-05-19T17:05:55.454Z,129.75
2023-05-19T17:08:24.362Z,29.80
2023-05-19T17:10:53.229Z,39.83
2023-05-19T17:13:22.237Z,24.30
2023-05-19T17:15:53.705Z,24.67
2023-05-19T17:18:23.556Z,23.95
2023-05-19T17:20:52.261Z,77.95
2023-05-19T17:23:22.388Z,79.70
2023-05-19T17:25:56.397Z,47.30
2023-05-19T17:28:25.360Z,33.40
2023-05-19T17:30:54.513Z,45.28
2023-05-19T17:33:23.671Z,34.70
2023-05-19T17:35:55.574Z,47.47
2023-05-19T17:38:24.807Z,86.10
2023-05-19T17:40:54.779Z,45.63
2023-05-19T17:43:23.809Z,35.83
2023-05-19T17:45:55.362Z,31.92
2023-05-19T17:48:24.770Z,29.42
2023-05-19T17:50:53.861Z,29.48
2023-05-19T17:53:22.952Z,35.47
2023-05-19T17:55:59.184Z,41.95
2023-05-19T17:58:29.116Z,33.88
2023-05-19T18:00:58.228Z,25.52
2023-05-19T18:03:27.489Z,20.90
2023-05-19T18:05:56.852Z,20.77
2023-05-19T18:08:26.572Z,21.38
2023-05-19T18:10:56.811Z,19.67
2023-05-19T18:13:26.954Z,19.83
2023-05-19T18:15:56.000Z,19.35
2023-05-19T18:18:25.132Z,20.10
2023-05-19T18:20:55.651Z,19.95
2023-05-19T18:23:24.622Z,19.08
2023-05-19T18:25:53.897Z,18.63
2023-05-19T18:28:23.881Z,17.15
2023-05-19T18:31:06.013Z,17.23
2023-05-19T18:33:34.945Z,17.98
2023-05-19T18:36:03.932Z,17.58
2023-05-19T18:38:33.552Z,18.17
2023-05-19T18:41:02.539Z,18.38
2023-05-19T18:43:33.056Z,17.05
2023-05-19T18:46:02.029Z,36.40
2023-05-19T18:48:31.056Z,49.83
2023-05-19T18:51:00.730Z,21.40
2023-05-19T18:53:29.589Z,16.58
2023-05-19T18:55:58.374Z,15.25
2023-05-19T18:58:27.692Z,14.90
2023-05-19T19:00:57.207Z,16.77
2023-05-19T19:03:26.321Z,86.10
2023-05-19T19:05:59.756Z,18.15
2023-05-19T19:08:32.264Z,109.82
2023-05-19T19:11:02.122Z,38.80
2023-05-19T19:13:31.610Z,23.00
2023-05-19T19:16:05.931Z,24.92
2023-05-19T19:18:36.700Z,23.88
2023-05-19T19:21:06.319Z,28.40
2023-05-19T19:23:36.371Z,44.75
2023-05-19T19:26:05.456Z,41.85
2023-05-19T19:28:34.371Z,24.35
2023-05-19T19:31:03.299Z,15.73
2023-05-19T19:33:32.213Z,15.70
2023-05-19T19:36:02.031Z,24.15
2023-05-19T19:38:31.014Z,86.50
2023-05-19T19:40:59.833Z,141.52
2023-05-19T19:43:28.681Z,17.83
2023-05-19T19:46:05.201Z,15.02
2023-05-19T19:48:34.154Z,13.88
2023-05-19T19:51:03.018Z,13.52
2023-05-19T19:53:34.288Z,13.23
2023-05-19T19:56:05.226Z,13.10
2023-05-19T19:58:34.098Z,12.60
2023-05-19T20:01:06.942Z,12.93
2023-05-19T20:03:36.850Z,12.80
2023-05-19T20:06:08.599Z,15.00
2023-05-19T20:08:37.638Z,11.77
2023-05-19T20:11:07.424Z,11.38
2023-05-19T20:13:36.478Z,11.10
2023-05-19T20:16:05.334Z,14.65
2023-05-19T20:18:34.594Z,11.82
2023-05-19T20:21:03.225Z,10.52
2023-05-19T20:23:32.612Z,13.43
2023-05-19T20:28:38.937Z,34.63
2023-05-19T20:31:10.422Z,19.50
2023-05-19T20:33:39.601Z,16.70
2023-05-19T20:36:08.850Z,22.38
2023-05-19T20:38:37.721Z,14.88
2023-05-19T20:41:06.432Z,14.02
2023-05-19T20:43:35.632Z,10.90
2023-05-19T20:46:05.216Z,8.50
2023-05-19T20:48:36.280Z,7.97
2023-05-19T20:51:05.359Z,10.13
2023-05-19T20:53:34.378Z,15.00
2023-05-19T20:56:03.320Z,12.00
2023-05-19T20:58:32.337Z,9.90
2023-05-19T21:01:01.270Z,9.13
2023-05-19T21:03:31.431Z,9.65
2023-05-19T21:06:01.459Z,9.23
2023-05-19T21:08:30.551Z,13.90
2023-05-19T21:11:00.171Z,10.55
2023-05-19T21:13:29.232Z,44.88
2023-05-19T21:15:58.052Z,13.38
2023-05-19T21:18:26.937Z,16.13
2023-05-19T21:20:55.927Z,27.85
2023-05-19T21:23:24.915Z,44.25
2023-05-19T21:25:53.944Z,12.15
2023-05-19T21:28:22.803Z,9.00
2023-05-19T21:30:51.755Z,9.45
2023-05-19T21:33:20.600Z,15.82
2023-05-19T21:35:49.571Z,9.35
2023-05-19T21:38:23.798Z,8.75
2023-05-19T21:40:53.974Z,16.10
2023-05-19T21:43:23.100Z,9.57
2023-05-19T21:45:51.977Z,8.18
2023-05-19T21:48:20.924Z,7.45
2023-05-19T21:50:56.721Z,8.82
2023-05-19T21:53:26.428Z,11.95
2023-05-19T21:55:55.467Z,13.82
2023-05-19T21:58:24.970Z,10.25
2023-05-19T22:00:57.670Z,10.88
2023-05-19T22:03:27.074Z,10.32
2023-05-19T22:05:56.653Z,8.52
2023-05-19T22:08:26.788Z,10.13
2023-05-19T22:10:55.951Z,7.43
2023-05-19T22:13:24.551Z,7.25
2023-05-19T22:15:53.741Z,6.78
2023-05-19T22:18:22.893Z,6.00
2023-05-19T22:20:51.714Z,6.57
2023-05-19T22:23:20.623Z,6.57
2023-05-19T22:25:49.564Z,6.93
2023-05-19T22:28:18.401Z,6.97
2023-05-19T22:30:47.429Z,6.13
2023-05-19T22:33:16.348Z,5.68
2023-05-19T22:35:45.467Z,5.90
2023-05-19T22:38:14.376Z,5.82
2023-05-19T22:40:43.328Z,5.80
2023-05-19T22:43:12.293Z,5.18
2023-05-19T22:45:41.325Z,5.43
2023-05-19T22:48:10.132Z,5.50
2023-05-19T22:50:39.135Z,5.68
2023-05-19T22:53:08.032Z,5.45
2023-05-19T22:55:37.053Z,5.35
2023-05-19T22:58:07.127Z,5.40
2023-05-19T23:00:36.029Z,5.38
2023-05-19T23:03:05.149Z,5.60
2023-05-19T23:05:34.039Z,5.85
2023-05-19T23:08:03.166Z,5.57
2023-05-19T23:10:32.192Z,5.40
2023-05-19T23:13:01.037Z,5.78
2023-05-19T23:15:29.866Z,5.22
2023-05-19T23:17:58.882Z,4.95
2023-05-19T23:20:27.850Z,5.47
2023-05-19T23:22:56.853Z,5.13
2023-05-19T23:25:25.759Z,5.32
2023-05-19T23:27:54.531Z,5.57
2023-05-19T23:30:23.512Z,5.25
2023-05-19T23:32:53.788Z,5.80
2023-05-19T23:35:23.295Z,6.80
2023-05-19T23:37:52.071Z,7.03
2023-05-19T23:40:20.951Z,5.85
2023-05-19T23:42:49.859Z,5.43
2023-05-19T23:45:18.861Z,5.60
2023-05-19T23:47:47.692Z,5.80
2023-05-19T23:50:16.714Z,5.35
2023-05-19T23:52:45.796Z,5.47
2023-05-19T23:55:15.817Z,6.07
2023-05-19T23:57:44.779Z,8.93
